Hovedside
METAR-TAF:

METAR-TAF

Lufthavner :

Vardø lufthavn. Svartnes

Vardø, Norge

breddegrad: 70-21N, lengdegrad: 031-03E, høyde over havet: 12 m

Gjeldene værobservasjon

Denne rapporten ble laget for 9 timer og 6 minutter siden, klokken 19:50 UTC
Vind 7 kt fra Øst
Temperatur 6°C
Luftfuktighet 100%
Trykk 995 hPa
Sikt: 1500 m
dis

METAR: ENSS 201950Z 08007KT 1500 BR VV004 06/06 Q0995 RMK WIND 500FT 07016KT

Tid: 06:56 (04:56 UTC)


TAF: fraværende

Værobservasjoner og værvarsel for over 4000 flyplasser (METAR- og TAF-rapporter).

Tilgjengelige stasjoner er representert av de røde og gule prikkene på kartet.

Hold musepekeren over prikken for å se navnet på stasjonen.

Klikk så for å se værobservasjoner og -varsler.

For å forandre kartet kan du klikke på den grønne knappen med svart kryss for å zoome inn, på den grønne knappen med strek for å zoome ut, eller på de grønne pilene for å se tilstøtende kart.


METAR-TAF: